sensor_id;sensor_type;location;lat;lon;timestamp;temperature;humidity
62991;DHT22;49084;48.204;16.202;2022-09-03T00:00:13;10.40;99.90
62991;DHT22;49084;48.204;16.202;2022-09-03T00:02:44;10.30;99.90
62991;DHT22;49084;48.204;16.202;2022-09-03T00:05:28;10.30;99.90
62991;DHT22;49084;48.204;16.202;2022-09-03T00:10:49;10.20;99.90
62991;DHT22;49084;48.204;16.202;2022-09-03T00:13:24;10.20;99.90
62991;DHT22;49084;48.204;16.202;2022-09-03T00:15:52;10.20;99.90
62991;DHT22;49084;48.204;16.202;2022-09-03T00:18:22;10.20;99.90
62991;DHT22;49084;48.204;16.202;2022-09-03T00:21:07;10.20;99.90
62991;DHT22;49084;48.204;16.202;2022-09-03T00:23:37;10.10;99.90
62991;DHT22;49084;48.204;16.202;2022-09-03T00:28:46;10.10;99.90
62991;DHT22;49084;48.204;16.202;2022-09-03T00:31:21;10.10;99.90
62991;DHT22;49084;48.204;16.202;2022-09-03T00:33:49;10.00;99.90
62991;DHT22;49084;48.204;16.202;2022-09-03T00:36:21;10.00;99.90
62991;DHT22;49084;48.204;16.202;2022-09-03T00:38:48;10.00;99.90
62991;DHT22;49084;48.204;16.202;2022-09-03T00:41:37;10.00;99.90
62991;DHT22;49084;48.204;16.202;2022-09-03T00:47:01;10.10;99.90
62991;DHT22;49084;48.204;16.202;2022-09-03T00:52:26;10.00;99.90
62991;DHT22;49084;48.204;16.202;2022-09-03T01:00:12;10.00;99.90
62991;DHT22;49084;48.204;16.202;2022-09-03T01:10:32;10.00;99.90
62991;DHT22;49084;48.204;16.202;2022-09-03T01:13:11;10.00;99.90
62991;DHT22;49084;48.204;16.202;2022-09-03T01:19:08;10.00;99.90
62991;DHT22;49084;48.204;16.202;2022-09-03T01:30:04;10.10;99.90
62991;DHT22;49084;48.204;16.202;2022-09-03T01:32:39;10.10;99.90
62991;DHT22;49084;48.204;16.202;2022-09-03T01:35:55;10.10;99.90
62991;DHT22;49084;48.204;16.202;2022-09-03T01:41:23;10.00;99.90
62991;DHT22;49084;48.204;16.202;2022-09-03T01:46:49;10.10;99.90
62991;DHT22;49084;48.204;16.202;2022-09-03T01:49:30;10.00;99.90
62991;DHT22;49084;48.204;16.202;2022-09-03T01:52:20;10.10;99.90
62991;DHT22;49084;48.204;16.202;2022-09-03T02:00:19;10.00;99.90
62991;DHT22;49084;48.204;16.202;2022-09-03T02:02:47;10.00;99.90
62991;DHT22;49084;48.204;16.202;2022-09-03T02:05:19;10.00;99.90
62991;DHT22;49084;48.204;16.202;2022-09-03T02:08:05;10.00;99.90
62991;DHT22;49084;48.204;16.202;2022-09-03T02:11:07;10.00;99.90
62991;DHT22;49084;48.204;16.202;2022-09-03T02:13:45;9.90;99.90
62991;DHT22;49084;48.204;16.202;2022-09-03T02:16:24;10.00;99.90
62991;DHT22;49084;48.204;16.202;2022-09-03T02:18:56;9.90;99.90
62991;DHT22;49084;48.204;16.202;2022-09-03T02:21:24;9.90;99.90
62991;DHT22;49084;48.204;16.202;2022-09-03T02:23:51;9.80;99.90
62991;DHT22;49084;48.204;16.202;2022-09-03T02:26:22;9.80;99.90
62991;DHT22;49084;48.204;16.202;2022-09-03T02:28:50;9.80;99.90
62991;DHT22;49084;48.204;16.202;2022-09-03T02:31:16;9.80;99.90
62991;DHT22;49084;48.204;16.202;2022-09-03T02:33:44;9.80;99.90
62991;DHT22;49084;48.204;16.202;2022-09-03T02:36:13;9.80;99.90
62991;DHT22;49084;48.204;16.202;2022-09-03T02:38:44;9.80;99.90
62991;DHT22;49084;48.204;16.202;2022-09-03T02:41:10;9.80;99.90
62991;DHT22;49084;48.204;16.202;2022-09-03T02:46:43;9.70;99.90
62991;DHT22;49084;48.204;16.202;2022-09-03T02:49:09;9.70;99.90
62991;DHT22;49084;48.204;16.202;2022-09-03T02:51:38;9.60;99.90
62991;DHT22;49084;48.204;16.202;2022-09-03T02:54:04;9.60;99.90
62991;DHT22;49084;48.204;16.202;2022-09-03T02:56:30;9.60;99.90
62991;DHT22;49084;48.204;16.202;2022-09-03T02:58:56;9.60;99.90
62991;DHT22;49084;48.204;16.202;2022-09-03T03:01:22;9.60;99.90
62991;DHT22;49084;48.204;16.202;2022-09-03T03:03:48;9.60;99.90
62991;DHT22;49084;48.204;16.202;2022-09-03T03:06:14;9.60;99.90
62991;DHT22;49084;48.204;16.202;2022-09-03T03:08:40;9.60;99.90
62991;DHT22;49084;48.204;16.202;2022-09-03T03:11:08;9.60;99.90
62991;DHT22;49084;48.204;16.202;2022-09-03T03:13:34;9.60;99.90
62991;DHT22;49084;48.204;16.202;2022-09-03T03:16:01;9.60;99.90
62991;DHT22;49084;48.204;16.202;2022-09-03T03:18:27;9.60;99.90
62991;DHT22;49084;48.204;16.202;2022-09-03T03:20:53;9.60;99.90
62991;DHT22;49084;48.204;16.202;2022-09-03T03:23:19;9.60;99.90
62991;DHT22;49084;48.204;16.202;2022-09-03T03:25:45;9.60;99.90
62991;DHT22;49084;48.204;16.202;2022-09-03T03:28:11;9.60;99.90
62991;DHT22;49084;48.204;16.202;2022-09-03T03:30:38;9.60;99.90
62991;DHT22;49084;48.204;16.202;2022-09-03T03:33:05;9.50;99.90
62991;DHT22;49084;48.204;16.202;2022-09-03T03:35:31;9.50;99.90
62991;DHT22;49084;48.204;16.202;2022-09-03T03:37:57;9.50;99.90
62991;DHT22;49084;48.204;16.202;2022-09-03T03:40:23;9.40;99.90
62991;DHT22;49084;48.204;16.202;2022-09-03T03:42:49;9.30;99.90
62991;DHT22;49084;48.204;16.202;2022-09-03T03:45:15;9.30;99.90
62991;DHT22;49084;48.204;16.202;2022-09-03T03:47:40;9.20;99.90
62991;DHT22;49084;48.204;16.202;2022-09-03T03:50:06;9.10;99.90
62991;DHT22;49084;48.204;16.202;2022-09-03T03:52:32;9.10;99.90
62991;DHT22;49084;48.204;16.202;2022-09-03T03:54:58;9.10;99.90
62991;DHT22;49084;48.204;16.202;2022-09-03T03:57:23;9.10;99.90
62991;DHT22;49084;48.204;16.202;2022-09-03T03:59:49;9.10;99.90
62991;DHT22;49084;48.204;16.202;2022-09-03T04:02:17;9.10;99.90
62991;DHT22;49084;48.204;16.202;2022-09-03T04:04:43;9.00;99.90
62991;DHT22;49084;48.204;16.202;2022-09-03T04:07:08;9.00;99.90
62991;DHT22;49084;48.204;16.202;2022-09-03T04:09:34;9.00;99.90
62991;DHT22;49084;48.204;16.202;2022-09-03T04:12:00;9.00;99.90
62991;DHT22;49084;48.204;16.202;2022-09-03T04:14:26;9.00;99.90
62991;DHT22;49084;48.204;16.202;2022-09-03T04:16:55;8.90;99.90
62991;DHT22;49084;48.204;16.202;2022-09-03T04:19:21;9.00;99.90
62991;DHT22;49084;48.204;16.202;2022-09-03T04:21:46;9.00;99.90
62991;DHT22;49084;48.204;16.202;2022-09-03T04:24:12;9.00;99.90
62991;DHT22;49084;48.204;16.202;2022-09-03T04:26:38;9.00;99.90
62991;DHT22;49084;48.204;16.202;2022-09-03T04:29:07;8.90;99.90
62991;DHT22;49084;48.204;16.202;2022-09-03T04:31:34;8.90;99.90
62991;DHT22;49084;48.204;16.202;2022-09-03T04:34:00;8.90;99.90
62991;DHT22;49084;48.204;16.202;2022-09-03T04:36:28;8.90;99.90
62991;DHT22;49084;48.204;16.202;2022-09-03T04:38:57;8.90;99.90
62991;DHT22;49084;48.204;16.202;2022-09-03T04:41:26;8.90;99.90
62991;DHT22;49084;48.204;16.202;2022-09-03T04:43:53;8.90;99.90
62991;DHT22;49084;48.204;16.202;2022-09-03T04:46:20;8.90;99.90
62991;DHT22;49084;48.204;16.202;2022-09-03T04:48:51;8.90;99.90
62991;DHT22;49084;48.204;16.202;2022-09-03T04:51:22;9.00;99.90
62991;DHT22;49084;48.204;16.202;2022-09-03T04:53:55;8.90;99.90
62991;DHT22;49084;48.204;16.202;2022-09-03T04:56:23;9.00;99.90
62991;DHT22;49084;48.204;16.202;2022-09-03T04:58:54;9.00;99.90
62991;DHT22;49084;48.204;16.202;2022-09-03T05:01:22;9.00;99.90
62991;DHT22;49084;48.204;16.202;2022-09-03T05:03:49;9.10;99.90
62991;DHT22;49084;48.204;16.202;2022-09-03T05:06:18;9.20;99.90
62991;DHT22;49084;48.204;16.202;2022-09-03T05:08:48;9.20;99.90
62991;DHT22;49084;48.204;16.202;2022-09-03T05:11:14;9.30;99.90
62991;DHT22;49084;48.204;16.202;2022-09-03T05:13:41;9.40;99.90
62991;DHT22;49084;48.204;16.202;2022-09-03T05:16:09;9.40;99.90
62991;DHT22;49084;48.204;16.202;2022-09-03T05:18:35;9.50;99.90
62991;DHT22;49084;48.204;16.202;2022-09-03T05:21:06;9.60;99.90
62991;DHT22;49084;48.204;16.202;2022-09-03T05:23:35;9.70;99.90
62991;DHT22;49084;48.204;16.202;2022-09-03T05:26:04;9.80;99.90
62991;DHT22;49084;48.204;16.202;2022-09-03T05:28:35;9.80;99.90
62991;DHT22;49084;48.204;16.202;2022-09-03T05:31:13;9.90;99.90
62991;DHT22;49084;48.204;16.202;2022-09-03T05:33:48;10.10;99.90
62991;DHT22;49084;48.204;16.202;2022-09-03T05:36:19;10.20;99.90
62991;DHT22;49084;48.204;16.202;2022-09-03T05:38:46;10.40;99.90
62991;DHT22;49084;48.204;16.202;2022-09-03T05:41:13;10.60;99.90
62991;DHT22;49084;48.204;16.202;2022-09-03T05:43:40;10.80;99.90
62991;DHT22;49084;48.204;16.202;2022-09-03T05:46:11;11.00;99.90
62991;DHT22;49084;48.204;16.202;2022-09-03T05:48:38;11.20;99.90
62991;DHT22;49084;48.204;16.202;2022-09-03T05:51:06;11.50;99.90
62991;DHT22;49084;48.204;16.202;2022-09-03T05:53:34;12.00;99.90
62991;DHT22;49084;48.204;16.202;2022-09-03T05:56:06;12.50;99.90
62991;DHT22;49084;48.204;16.202;2022-09-03T05:58:33;13.00;99.90
62991;DHT22;49084;48.204;16.202;2022-09-03T06:00:59;13.30;99.90
62991;DHT22;49084;48.204;16.202;2022-09-03T06:03:25;13.80;99.90
62991;DHT22;49084;48.204;16.202;2022-09-03T06:05:52;14.30;99.90
62991;DHT22;49084;48.204;16.202;2022-09-03T06:08:20;14.80;99.90
62991;DHT22;49084;48.204;16.202;2022-09-03T06:10:46;15.30;99.90
62991;DHT22;49084;48.204;16.202;2022-09-03T06:13:12;15.70;99.90
62991;DHT22;49084;48.204;16.202;2022-09-03T06:15:39;16.10;99.90
62991;DHT22;49084;48.204;16.202;2022-09-03T06:18:05;16.60;99.90
62991;DHT22;49084;48.204;16.202;2022-09-03T06:20:31;17.00;99.90
62991;DHT22;49084;48.204;16.202;2022-09-03T06:22:57;17.30;99.90
62991;DHT22;49084;48.204;16.202;2022-09-03T06:25:23;17.60;99.90
62991;DHT22;49084;48.204;16.202;2022-09-03T06:27:49;18.00;99.90
62991;DHT22;49084;48.204;16.202;2022-09-03T06:30:15;18.40;99.90
62991;DHT22;49084;48.204;16.202;2022-09-03T06:32:45;18.70;99.90
62991;DHT22;49084;48.204;16.202;2022-09-03T06:35:11;19.00;99.90
62991;DHT22;49084;48.204;16.202;2022-09-03T06:37:40;19.20;99.90
62991;DHT22;49084;48.204;16.202;2022-09-03T06:40:06;19.40;99.90
62991;DHT22;49084;48.204;16.202;2022-09-03T06:42:37;19.20;99.60
62991;DHT22;49084;48.204;16.202;2022-09-03T06:45:03;19.50;99.30
62991;DHT22;49084;48.204;16.202;2022-09-03T06:47:31;19.40;99.00
62991;DHT22;49084;48.204;16.202;2022-09-03T06:49:57;19.50;99.10
62991;DHT22;49084;48.204;16.202;2022-09-03T06:52:24;19.70;98.50
62991;DHT22;49084;48.204;16.202;2022-09-03T06:54:50;20.00;98.50
62991;DHT22;49084;48.204;16.202;2022-09-03T06:57:16;20.10;97.30
62991;DHT22;49084;48.204;16.202;2022-09-03T06:59:41;20.40;96.80
62991;DHT22;49084;48.204;16.202;2022-09-03T07:02:08;20.60;96.20
62991;DHT22;49084;48.204;16.202;2022-09-03T07:04:34;21.00;95.60
62991;DHT22;49084;48.204;16.202;2022-09-03T07:07:00;21.20;94.30
62991;DHT22;49084;48.204;16.202;2022-09-03T07:09:26;21.20;93.10
62991;DHT22;49084;48.204;16.202;2022-09-03T07:11:52;21.10;93.10
62991;DHT22;49084;48.204;16.202;2022-09-03T07:14:19;21.20;93.10
62991;DHT22;49084;48.204;16.202;2022-09-03T07:16:45;21.40;92.80
62991;DHT22;49084;48.204;16.202;2022-09-03T07:19:11;21.60;91.60
62991;DHT22;49084;48.204;16.202;2022-09-03T07:21:38;21.90;91.10
62991;DHT22;49084;48.204;16.202;2022-09-03T07:24:08;22.10;90.30
62991;DHT22;49084;48.204;16.202;2022-09-03T07:26:39;22.30;88.80
62991;DHT22;49084;48.204;16.202;2022-09-03T07:29:08;21.80;88.10
62991;DHT22;49084;48.204;16.202;2022-09-03T07:31:41;21.90;89.40
62991;DHT22;49084;48.204;16.202;2022-09-03T07:34:09;22.20;87.50
62991;DHT22;49084;48.204;16.202;2022-09-03T07:36:38;22.30;87.30
62991;DHT22;49084;48.204;16.202;2022-09-03T07:39:06;22.40;86.20
62991;DHT22;49084;48.204;16.202;2022-09-03T07:41:32;22.50;84.50
62991;DHT22;49084;48.204;16.202;2022-09-03T07:43:58;22.70;84.20
62991;DHT22;49084;48.204;16.202;2022-09-03T07:46:31;22.80;82.40
62991;DHT22;49084;48.204;16.202;2022-09-03T07:48:59;23.10;81.30
62991;DHT22;49084;48.204;16.202;2022-09-03T07:51:30;23.60;80.10
62991;DHT22;49084;48.204;16.202;2022-09-03T07:53:58;24.00;77.80
62991;DHT22;49084;48.204;16.202;2022-09-03T07:56:25;23.90;76.30
62991;DHT22;49084;48.204;16.202;2022-09-03T07:58:51;23.90;75.90
62991;DHT22;49084;48.204;16.202;2022-09-03T08:01:20;24.00;75.10
62991;DHT22;49084;48.204;16.202;2022-09-03T08:03:48;24.00;73.80
62991;DHT22;49084;48.204;16.202;2022-09-03T08:06:15;24.10;74.20
62991;DHT22;49084;48.204;16.202;2022-09-03T08:08:41;24.40;72.90
62991;DHT22;49084;48.204;16.202;2022-09-03T08:11:14;24.50;72.70
62991;DHT22;49084;48.204;16.202;2022-09-03T08:13:42;24.70;71.70
62991;DHT22;49084;48.204;16.202;2022-09-03T08:16:09;24.90;70.70
62991;DHT22;49084;48.204;16.202;2022-09-03T08:18:36;25.20;69.50
62991;DHT22;49084;48.204;16.202;2022-09-03T08:21:08;25.30;68.60
62991;DHT22;49084;48.204;16.202;2022-09-03T08:23:38;25.40;68.20
62991;DHT22;49084;48.204;16.202;2022-09-03T08:26:05;25.50;68.40
62991;DHT22;49084;48.204;16.202;2022-09-03T08:28:31;25.50;68.20
62991;DHT22;49084;48.204;16.202;2022-09-03T08:31:09;25.50;67.50
62991;DHT22;49084;48.204;16.202;2022-09-03T08:33:39;25.10;67.60
62991;DHT22;49084;48.204;16.202;2022-09-03T08:36:10;24.50;69.20
62991;DHT22;49084;48.204;16.202;2022-09-03T08:38:37;24.40;71.30
62991;DHT22;49084;48.204;16.202;2022-09-03T08:47:15;24.90;69.10
62991;DHT22;49084;48.204;16.202;2022-09-03T08:49:51;25.10;68.60
62991;DHT22;49084;48.204;16.202;2022-09-03T08:52:45;24.60;68.60
62991;DHT22;49084;48.204;16.202;2022-09-03T08:57:49;25.30;68.30
62991;DHT22;49084;48.204;16.202;2022-09-03T09:00:17;25.50;67.70
62991;DHT22;49084;48.204;16.202;2022-09-03T09:05:51;26.50;65.50
62991;DHT22;49084;48.204;16.202;2022-09-03T09:10:57;25.30;65.80
62991;DHT22;49084;48.204;16.202;2022-09-03T09:13:38;25.60;67.10
62991;DHT22;49084;48.204;16.202;2022-09-03T09:16:07;25.50;65.60
62991;DHT22;49084;48.204;16.202;2022-09-03T09:18:56;25.00;67.60
62991;DHT22;49084;48.204;16.202;2022-09-03T09:21:35;25.60;68.30
62991;DHT22;49084;48.204;16.202;2022-09-03T09:24:07;26.00;65.80
62991;DHT22;49084;48.204;16.202;2022-09-03T09:26:35;26.40;65.40
62991;DHT22;49084;48.204;16.202;2022-09-03T09:29:07;27.00;62.80
62991;DHT22;49084;48.204;16.202;2022-09-03T09:31:36;27.20;62.30
62991;DHT22;49084;48.204;16.202;2022-09-03T09:34:06;26.80;62.30
62991;DHT22;49084;48.204;16.202;2022-09-03T09:36:53;26.80;62.60
62991;DHT22;49084;48.204;16.202;2022-09-03T09:39:20;26.50;62.60
62991;DHT22;49084;48.204;16.202;2022-09-03T09:42:10;26.80;61.60
62991;DHT22;49084;48.204;16.202;2022-09-03T09:44:41;27.00;62.80
62991;DHT22;49084;48.204;16.202;2022-09-03T09:47:29;28.20;61.00
62991;DHT22;49084;48.204;16.202;2022-09-03T09:50:01;29.00;59.00
62991;DHT22;49084;48.204;16.202;2022-09-03T09:52:28;29.70;57.40
62991;DHT22;49084;48.204;16.202;2022-09-03T09:55:08;30.20;56.10
62991;DHT22;49084;48.204;16.202;2022-09-03T09:57:35;30.30;54.60
62991;DHT22;49084;48.204;16.202;2022-09-03T10:00:07;30.10;54.30
62991;DHT22;49084;48.204;16.202;2022-09-03T10:02:38;30.50;53.50
62991;DHT22;49084;48.204;16.202;2022-09-03T10:05:25;30.20;52.80
62991;DHT22;49084;48.204;16.202;2022-09-03T10:08:00;30.30;52.20
62991;DHT22;49084;48.204;16.202;2022-09-03T10:10:26;29.50;53.30
62991;DHT22;49084;48.204;16.202;2022-09-03T10:13:00;29.20;52.80
62991;DHT22;49084;48.204;16.202;2022-09-03T10:15:35;29.30;53.00
62991;DHT22;49084;48.204;16.202;2022-09-03T10:20:53;29.60;52.70
62991;DHT22;49084;48.204;16.202;2022-09-03T10:23:24;30.30;51.70
62991;DHT22;49084;48.204;16.202;2022-09-03T10:28:24;30.30;51.50
62991;DHT22;49084;48.204;16.202;2022-09-03T10:33:31;31.30;50.30
62991;DHT22;49084;48.204;16.202;2022-09-03T10:36:20;30.80;50.00
62991;DHT22;49084;48.204;16.202;2022-09-03T10:38:50;31.20;50.00
62991;DHT22;49084;48.204;16.202;2022-09-03T10:41:39;30.30;48.70
62991;DHT22;49084;48.204;16.202;2022-09-03T10:55:17;28.30;54.80
62991;DHT22;49084;48.204;16.202;2022-09-03T11:00:54;28.50;53.90
62991;DHT22;49084;48.204;16.202;2022-09-03T11:06:31;30.30;52.40
62991;DHT22;49084;48.204;16.202;2022-09-03T11:09:10;31.50;51.00
62991;DHT22;49084;48.204;16.202;2022-09-03T11:11:43;32.40;49.70
62991;DHT22;49084;48.204;16.202;2022-09-03T11:14:14;32.80;48.70
62991;DHT22;49084;48.204;16.202;2022-09-03T11:16:47;33.00;47.20
62991;DHT22;49084;48.204;16.202;2022-09-03T11:19:40;32.10;48.00
62991;DHT22;49084;48.204;16.202;2022-09-03T11:22:11;31.90;48.70
62991;DHT22;49084;48.204;16.202;2022-09-03T11:24:38;31.50;48.20
62991;DHT22;49084;48.204;16.202;2022-09-03T11:30:09;32.10;48.10
62991;DHT22;49084;48.204;16.202;2022-09-03T11:32:55;32.30;48.30
62991;DHT22;49084;48.204;16.202;2022-09-03T11:38:04;29.90;49.80
62991;DHT22;49084;48.204;16.202;2022-09-03T11:40:35;29.90;50.10
62991;DHT22;49084;48.204;16.202;2022-09-03T11:48:51;30.60;49.50
62991;DHT22;49084;48.204;16.202;2022-09-03T11:51:34;31.40;49.10
62991;DHT22;49084;48.204;16.202;2022-09-03T11:56:45;31.50;48.90
62991;DHT22;49084;48.204;16.202;2022-09-03T11:59:32;31.80;48.50
62991;DHT22;49084;48.204;16.202;2022-09-03T12:02:08;32.70;47.70
62991;DHT22;49084;48.204;16.202;2022-09-03T12:11:53;29.70;50.10
62991;DHT22;49084;48.204;16.202;2022-09-03T12:18:44;28.40;52.90
62991;DHT22;49084;48.204;16.202;2022-09-03T12:21:12;28.90;52.90
62991;DHT22;49084;48.204;16.202;2022-09-03T12:26:21;29.20;52.20
62991;DHT22;49084;48.204;16.202;2022-09-03T12:28:53;29.70;51.30
62991;DHT22;49084;48.204;16.202;2022-09-03T12:31:30;30.00;51.70
62991;DHT22;49084;48.204;16.202;2022-09-03T12:33:58;30.90;51.40
62991;DHT22;49084;48.204;16.202;2022-09-03T12:36:25;32.00;49.00
62991;DHT22;49084;48.204;16.202;2022-09-03T12:38:51;32.90;47.10
62991;DHT22;49084;48.204;16.202;2022-09-03T12:41:28;33.00;46.50
62991;DHT22;49084;48.204;16.202;2022-09-03T12:43:57;32.70;46.00
62991;DHT22;49084;48.204;16.202;2022-09-03T12:46:28;33.10;46.70
62991;DHT22;49084;48.204;16.202;2022-09-03T12:48:59;33.70;46.30
62991;DHT22;49084;48.204;16.202;2022-09-03T12:51:35;33.70;44.80
62991;DHT22;49084;48.204;16.202;2022-09-03T12:54:02;33.00;44.80
62991;DHT22;49084;48.204;16.202;2022-09-03T12:56:32;32.20;45.60
62991;DHT22;49084;48.204;16.202;2022-09-03T12:59:11;31.60;46.30
62991;DHT22;49084;48.204;16.202;2022-09-03T13:01:51;31.60;47.60
62991;DHT22;49084;48.204;16.202;2022-09-03T13:04:22;31.80;47.00
62991;DHT22;49084;48.204;16.202;2022-09-03T13:07:07;32.10;47.10
62991;DHT22;49084;48.204;16.202;2022-09-03T13:09:37;32.20;46.00
62991;DHT22;49084;48.204;16.202;2022-09-03T13:12:04;32.00;46.40
62991;DHT22;49084;48.204;16.202;2022-09-03T13:14:45;32.10;46.10
62991;DHT22;49084;48.204;16.202;2022-09-03T13:17:19;32.30;46.80
62991;DHT22;49084;48.204;16.202;2022-09-03T13:26:02;31.50;47.10
62991;DHT22;49084;48.204;16.202;2022-09-03T13:31:33;30.20;47.40
62991;DHT22;49084;48.204;16.202;2022-09-03T13:34:30;30.30;48.90
62991;DHT22;49084;48.204;16.202;2022-09-03T13:39:57;32.30;46.80
62991;DHT22;49084;48.204;16.202;2022-09-03T13:42:32;33.00;44.10
62991;DHT22;49084;48.204;16.202;2022-09-03T13:45:20;32.40;44.10
62991;DHT22;49084;48.204;16.202;2022-09-03T13:47:55;32.10;45.20
62991;DHT22;49084;48.204;16.202;2022-09-03T13:50:48;31.70;45.40
62991;DHT22;49084;48.204;16.202;2022-09-03T13:56:27;30.00;47.40
62991;DHT22;49084;48.204;16.202;2022-09-03T13:59:07;29.50;48.20
62991;DHT22;49084;48.204;16.202;2022-09-03T14:04:16;30.70;47.70
62991;DHT22;49084;48.204;16.202;2022-09-03T14:07:15;30.80;47.10
62991;DHT22;49084;48.204;16.202;2022-09-03T14:12:27;31.20;46.60
62991;DHT22;49084;48.204;16.202;2022-09-03T14:20:33;32.20;45.50
62991;DHT22;49084;48.204;16.202;2022-09-03T14:23:28;31.40;45.70
62991;DHT22;49084;48.204;16.202;2022-09-03T14:26:00;30.70;46.80
62991;DHT22;49084;48.204;16.202;2022-09-03T14:28:39;30.20;48.40
62991;DHT22;49084;48.204;16.202;2022-09-03T14:41:59;29.20;49.30
62991;DHT22;49084;48.204;16.202;2022-09-03T14:48:14;28.70;50.40
62991;DHT22;49084;48.204;16.202;2022-09-03T15:01:34;30.30;49.30
62991;DHT22;49084;48.204;16.202;2022-09-03T15:04:17;30.70;47.90
62991;DHT22;49084;48.204;16.202;2022-09-03T15:14:58;29.60;49.40
62991;DHT22;49084;48.204;16.202;2022-09-03T15:20:17;30.90;48.80
62991;DHT22;49084;48.204;16.202;2022-09-03T15:29:30;31.00;47.80
62991;DHT22;49084;48.204;16.202;2022-09-03T15:32:11;30.80;48.30
62991;DHT22;49084;48.204;16.202;2022-09-03T15:37:42;29.00;50.30
62991;DHT22;49084;48.204;16.202;2022-09-03T15:40:28;28.00;52.30
62991;DHT22;49084;48.204;16.202;2022-09-03T15:43:21;27.80;53.10
62991;DHT22;49084;48.204;16.202;2022-09-03T15:48:51;27.60;53.60
62991;DHT22;49084;48.204;16.202;2022-09-03T15:51:33;27.40;53.80
62991;DHT22;49084;48.204;16.202;2022-09-03T15:54:09;27.20;54.70
62991;DHT22;49084;48.204;16.202;2022-09-03T15:56:57;27.00;54.50
62991;DHT22;49084;48.204;16.202;2022-09-03T15:59:41;27.00;54.60
62991;DHT22;49084;48.204;16.202;2022-09-03T16:02:20;27.20;54.20
62991;DHT22;49084;48.204;16.202;2022-09-03T16:05:02;27.00;54.80
62991;DHT22;49084;48.204;16.202;2022-09-03T16:12:40;27.10;54.90
62991;DHT22;49084;48.204;16.202;2022-09-03T16:15:16;27.00;54.60
62991;DHT22;49084;48.204;16.202;2022-09-03T16:20:53;27.10;55.00
62991;DHT22;49084;48.204;16.202;2022-09-03T16:23:22;27.00;55.10
62991;DHT22;49084;48.204;16.202;2022-09-03T16:25:56;27.00;55.30
62991;DHT22;49084;48.204;16.202;2022-09-03T16:28:35;26.80;55.70
62991;DHT22;49084;48.204;16.202;2022-09-03T16:42:18;25.30;58.70
62991;DHT22;49084;48.204;16.202;2022-09-03T16:55:47;23.90;62.90
62991;DHT22;49084;48.204;16.202;2022-09-03T16:58:52;23.80;63.80
62991;DHT22;49084;48.204;16.202;2022-09-03T17:12:35;23.40;65.80
62991;DHT22;49084;48.204;16.202;2022-09-03T17:15:13;23.30;66.00
62991;DHT22;49084;48.204;16.202;2022-09-03T17:23:53;23.10;67.20
62991;DHT22;49084;48.204;16.202;2022-09-03T17:31:47;22.80;69.10
62991;DHT22;49084;48.204;16.202;2022-09-03T17:42:50;22.50;70.30
62991;DHT22;49084;48.204;16.202;2022-09-03T17:50:59;22.40;71.00
62991;DHT22;49084;48.204;16.202;2022-09-03T17:53:46;22.30;71.10
62991;DHT22;49084;48.204;16.202;2022-09-03T17:59:15;22.30;71.70
62991;DHT22;49084;48.204;16.202;2022-09-03T18:01:51;22.30;72.10
62991;DHT22;49084;48.204;16.202;2022-09-03T18:05:17;22.20;72.60
62991;DHT22;49084;48.204;16.202;2022-09-03T18:10:03;22.10;73.20
62991;DHT22;49084;48.204;16.202;2022-09-03T18:12:47;22.10;73.60
62991;DHT22;49084;48.204;16.202;2022-09-03T18:15:29;22.00;73.80
62991;DHT22;49084;48.204;16.202;2022-09-03T18:18:25;22.00;74.00
62991;DHT22;49084;48.204;16.202;2022-09-03T18:20:54;21.90;74.20
62991;DHT22;49084;48.204;16.202;2022-09-03T18:24:17;21.80;74.80
62991;DHT22;49084;48.204;16.202;2022-09-03T18:27:17;21.80;75.30
62991;DHT22;49084;48.204;16.202;2022-09-03T18:32:47;21.60;76.90
62991;DHT22;49084;48.204;16.202;2022-09-03T18:35:32;21.60;77.40
62991;DHT22;49084;48.204;16.202;2022-09-03T18:38:24;21.50;78.80
62991;DHT22;49084;48.204;16.202;2022-09-03T18:41:39;21.50;80.10
62991;DHT22;49084;48.204;16.202;2022-09-03T18:53:56;20.70;94.20
62991;DHT22;49084;48.204;16.202;2022-09-03T18:56:51;20.50;96.80
62991;DHT22;49084;48.204;16.202;2022-09-03T19:00:02;20.40;97.90
62991;DHT22;49084;48.204;16.202;2022-09-03T19:02:46;20.30;99.20
62991;DHT22;49084;48.204;16.202;2022-09-03T19:05:42;20.30;99.90
62991;DHT22;49084;48.204;16.202;2022-09-03T19:08:38;20.30;99.90
62991;DHT22;49084;48.204;16.202;2022-09-03T19:11:33;20.30;99.90
62991;DHT22;49084;48.204;16.202;2022-09-03T19:14:31;20.20;99.90
62991;DHT22;49084;48.204;16.202;2022-09-03T19:17:25;20.10;99.90
62991;DHT22;49084;48.204;16.202;2022-09-03T19:20:21;20.00;99.90
62991;DHT22;49084;48.204;16.202;2022-09-03T19:23:09;19.80;99.90
62991;DHT22;49084;48.204;16.202;2022-09-03T19:25:55;19.80;99.90
62991;DHT22;49084;48.204;16.202;2022-09-03T19:28:46;19.70;99.90
62991;DHT22;49084;48.204;16.202;2022-09-03T19:31:52;19.70;99.90
62991;DHT22;49084;48.204;16.202;2022-09-03T19:38:04;19.60;99.90
62991;DHT22;49084;48.204;16.202;2022-09-03T19:44:08;19.50;99.90
62991;DHT22;49084;48.204;16.202;2022-09-03T19:46:59;19.50;99.90
62991;DHT22;49084;48.204;16.202;2022-09-03T19:55:35;19.30;99.90
62991;DHT22;49084;48.204;16.202;2022-09-03T19:58:23;19.30;99.90
62991;DHT22;49084;48.204;16.202;2022-09-03T20:01:09;19.20;99.90
62991;DHT22;49084;48.204;16.202;2022-09-03T20:03:59;19.20;99.90
62991;DHT22;49084;48.204;16.202;2022-09-03T20:06:46;19.20;99.90
62991;DHT22;49084;48.204;16.202;2022-09-03T20:09:35;19.20;99.90
62991;DHT22;49084;48.204;16.202;2022-09-03T20:12:22;19.20;99.90
62991;DHT22;49084;48.204;16.202;2022-09-03T20:14:49;19.10;99.90
62991;DHT22;49084;48.204;16.202;2022-09-03T20:17:34;18.90;99.90
62991;DHT22;49084;48.204;16.202;2022-09-03T20:20:23;18.80;99.90
62991;DHT22;49084;48.204;16.202;2022-09-03T20:22:58;18.70;99.90
62991;DHT22;49084;48.204;16.202;2022-09-03T20:36:13;18.40;99.90
62991;DHT22;49084;48.204;16.202;2022-09-03T20:41:54;18.30;99.90
62991;DHT22;49084;48.204;16.202;2022-09-03T20:44:58;18.30;99.90
62991;DHT22;49084;48.204;16.202;2022-09-03T20:51:22;18.30;99.90
62991;DHT22;49084;48.204;16.202;2022-09-03T20:54:15;18.20;99.90
62991;DHT22;49084;48.204;16.202;2022-09-03T20:56:58;18.30;99.90
62991;DHT22;49084;48.204;16.202;2022-09-03T21:13:29;18.30;99.90
62991;DHT22;49084;48.204;16.202;2022-09-03T21:23:55;18.20;99.90
62991;DHT22;49084;48.204;16.202;2022-09-03T21:26:20;18.20;99.90
62991;DHT22;49084;48.204;16.202;2022-09-03T21:29:20;18.30;99.90
62991;DHT22;49084;48.204;16.202;2022-09-03T21:32:01;18.30;99.90